createdAt,value
2023-08-31T00:01:02.086Z,5.88
2023-08-31T00:03:30.373Z,5.85
2023-08-31T00:05:58.142Z,5.90
2023-08-31T00:08:25.340Z,6.82
2023-08-31T00:10:59.498Z,5.72
2023-08-31T00:15:58.902Z,5.18
2023-08-31T00:18:27.134Z,5.60
2023-08-31T00:20:54.562Z,5.22
2023-08-31T00:23:21.874Z,6.10
2023-08-31T00:25:49.387Z,6.25
2023-08-31T00:28:19.587Z,5.25
2023-08-31T00:30:47.837Z,5.00
2023-08-31T00:33:16.748Z,5.05
2023-08-31T00:35:45.211Z,5.22
2023-08-31T00:38:12.707Z,5.05
2023-08-31T00:40:45.897Z,5.50
2023-08-31T00:43:16.738Z,5.20
2023-08-31T00:45:45.690Z,5.32
2023-08-31T00:48:13.471Z,5.35
2023-08-31T00:50:40.710Z,5.45
2023-08-31T00:53:08.291Z,5.32
2023-08-31T00:55:35.638Z,5.10
2023-08-31T00:58:03.039Z,5.63
2023-08-31T01:00:49.739Z,5.70
2023-08-31T01:03:54.796Z,5.30
2023-08-31T01:09:20.381Z,5.43
2023-08-31T01:12:12.604Z,5.90
2023-08-31T01:14:43.613Z,5.85
2023-08-31T01:17:14.794Z,5.88
2023-08-31T01:19:54.221Z,6.00
2023-08-31T01:22:41.894Z,6.30
2023-08-31T01:25:10.620Z,6.28
2023-08-31T01:27:39.585Z,6.10
2023-08-31T01:30:07.656Z,6.40
2023-08-31T01:32:35.507Z,6.72
2023-08-31T01:35:06.665Z,6.13
2023-08-31T01:37:47.215Z,6.28
2023-08-31T01:40:19.004Z,6.28
2023-08-31T01:42:48.130Z,6.53
2023-08-31T01:45:22.069Z,6.28
2023-08-31T01:47:50.164Z,7.13
2023-08-31T01:50:17.417Z,6.30
2023-08-31T01:52:44.526Z,6.40
2023-08-31T01:55:11.888Z,6.18
2023-08-31T01:57:39.022Z,6.05
2023-08-31T02:00:07.305Z,5.65
2023-08-31T02:02:34.640Z,6.18
2023-08-31T02:05:03.453Z,6.47
2023-08-31T02:07:30.538Z,6.32
2023-08-31T02:09:57.788Z,6.50
2023-08-31T02:12:24.896Z,6.20
2023-08-31T02:14:52.218Z,6.05
2023-08-31T02:17:19.331Z,6.18
2023-08-31T02:19:46.580Z,6.47
2023-08-31T02:22:13.876Z,6.57
2023-08-31T02:24:40.955Z,6.00
2023-08-31T02:27:08.160Z,5.55
2023-08-31T02:29:35.294Z,5.50
2023-08-31T02:32:05.945Z,5.60
2023-08-31T02:34:33.159Z,6.15
2023-08-31T02:37:00.344Z,5.95
2023-08-31T02:39:27.459Z,5.85
2023-08-31T02:41:54.650Z,5.70
2023-08-31T02:44:22.717Z,5.05
2023-08-31T02:46:49.847Z,5.78
2023-08-31T02:49:17.055Z,5.43
2023-08-31T02:51:44.199Z,5.78
2023-08-31T02:54:11.463Z,5.55
2023-08-31T02:56:38.656Z,5.65
2023-08-31T02:59:05.777Z,5.32
2023-08-31T03:01:33.148Z,5.10
2023-08-31T03:04:00.372Z,5.13
2023-08-31T03:06:27.808Z,4.70
2023-08-31T03:08:55.009Z,4.55
2023-08-31T03:11:22.165Z,4.53
2023-08-31T03:13:49.370Z,4.07
2023-08-31T03:16:16.684Z,3.75
2023-08-31T03:18:43.845Z,3.90
2023-08-31T03:21:11.192Z,3.75
2023-08-31T03:23:38.349Z,4.32
2023-08-31T03:26:09.971Z,3.85
2023-08-31T03:28:37.194Z,4.22
2023-08-31T03:31:04.475Z,4.78
2023-08-31T03:33:31.728Z,4.10
2023-08-31T03:36:03.855Z,4.78
2023-08-31T03:38:31.903Z,4.32
2023-08-31T03:40:59.443Z,4.45
2023-08-31T03:43:26.638Z,4.18
2023-08-31T03:45:57.943Z,4.10
2023-08-31T03:48:26.032Z,3.80
2023-08-31T03:50:54.727Z,4.40
2023-08-31T03:53:21.972Z,4.03
2023-08-31T03:55:49.297Z,3.53
2023-08-31T03:58:16.863Z,3.45
2023-08-31T04:00:44.014Z,3.72
2023-08-31T04:03:11.677Z,3.42
2023-08-31T04:05:39.247Z,4.03
2023-08-31T04:08:07.191Z,3.92
2023-08-31T04:10:34.352Z,3.70
2023-08-31T04:13:01.566Z,3.20
2023-08-31T04:15:29.002Z,4.15
2023-08-31T04:17:56.194Z,3.67
2023-08-31T04:20:24.218Z,3.92
2023-08-31T04:22:51.641Z,4.10
2023-08-31T04:25:18.807Z,4.07
2023-08-31T04:27:46.788Z,4.15
2023-08-31T04:30:14.136Z,4.13
2023-08-31T04:32:41.228Z,4.63
2023-08-31T04:35:09.049Z,4.30
2023-08-31T04:37:36.193Z,3.88
2023-08-31T04:40:05.392Z,4.25
2023-08-31T04:42:32.563Z,4.15
2023-08-31T04:45:00.093Z,4.13
2023-08-31T04:47:27.346Z,4.47
2023-08-31T04:49:54.628Z,4.72
2023-08-31T04:52:22.050Z,4.82
2023-08-31T04:54:49.361Z,4.90
2023-08-31T04:57:16.713Z,4.93
2023-08-31T04:59:44.019Z,4.68
2023-08-31T05:02:11.276Z,4.13
2023-08-31T05:04:38.628Z,4.72
2023-08-31T05:07:06.240Z,4.60
2023-08-31T05:09:36.500Z,4.60
2023-08-31T05:12:04.345Z,4.28
2023-08-31T05:14:31.953Z,4.40
2023-08-31T05:16:59.279Z,4.75
2023-08-31T05:19:28.170Z,4.65
2023-08-31T05:21:55.590Z,4.00
2023-08-31T05:24:22.908Z,5.00
2023-08-31T05:26:51.179Z,4.60
2023-08-31T05:29:18.643Z,5.00
2023-08-31T05:31:45.738Z,5.00
2023-08-31T05:34:17.121Z,4.40
2023-08-31T05:36:44.684Z,4.90
2023-08-31T05:39:12.798Z,4.82
2023-08-31T05:41:42.369Z,5.35
2023-08-31T05:44:11.340Z,4.90
2023-08-31T05:46:39.961Z,4.78
2023-08-31T05:49:08.047Z,4.50
2023-08-31T05:51:35.646Z,4.65
2023-08-31T05:54:04.583Z,4.68
2023-08-31T05:56:31.997Z,4.80
2023-08-31T05:58:59.229Z,5.20
2023-08-31T06:01:26.498Z,4.95
2023-08-31T06:03:53.832Z,4.50
2023-08-31T06:06:21.087Z,4.55
2023-08-31T06:08:49.674Z,5.10
2023-08-31T06:11:16.995Z,5.35
2023-08-31T06:13:44.349Z,4.90
2023-08-31T06:16:12.191Z,4.75
2023-08-31T06:18:39.421Z,5.20
2023-08-31T06:21:06.586Z,5.18
2023-08-31T06:23:33.718Z,5.00
2023-08-31T06:26:00.944Z,4.57
2023-08-31T06:28:28.301Z,4.80
2023-08-31T06:30:55.457Z,3.60
2023-08-31T06:33:23.147Z,4.20
2023-08-31T06:35:53.384Z,4.45
2023-08-31T06:38:21.348Z,3.53
2023-08-31T06:40:49.055Z,3.35
2023-08-31T06:43:16.255Z,3.55
2023-08-31T06:45:43.607Z,3.33
2023-08-31T06:48:10.979Z,3.30
2023-08-31T06:50:38.365Z,2.83
2023-08-31T06:53:05.730Z,3.03
2023-08-31T06:55:33.454Z,3.10
2023-08-31T06:58:02.240Z,3.30
2023-08-31T07:00:29.497Z,3.30
2023-08-31T07:02:56.889Z,2.92
2023-08-31T07:05:27.637Z,3.35
2023-08-31T07:07:55.775Z,3.00
2023-08-31T07:10:23.654Z,3.35
2023-08-31T07:12:50.784Z,3.28
2023-08-31T07:15:18.368Z,3.33
2023-08-31T07:17:45.513Z,3.15
2023-08-31T07:20:13.975Z,3.28
2023-08-31T07:22:43.874Z,2.97
2023-08-31T07:25:11.213Z,3.17
2023-08-31T07:27:38.522Z,3.42
2023-08-31T07:30:07.035Z,3.20
2023-08-31T07:32:34.482Z,3.95
2023-08-31T07:35:02.102Z,3.53
2023-08-31T07:37:29.573Z,3.60
2023-08-31T07:39:56.954Z,3.58
2023-08-31T07:42:24.362Z,3.17
2023-08-31T07:44:51.855Z,3.17
2023-08-31T07:47:19.279Z,3.00
2023-08-31T07:49:46.725Z,2.90
2023-08-31T07:52:14.897Z,2.92
2023-08-31T07:54:42.388Z,3.28
2023-08-31T07:57:09.787Z,3.00
2023-08-31T07:59:40.529Z,3.20
2023-08-31T08:02:08.391Z,3.10
2023-08-31T08:04:35.803Z,3.72
2023-08-31T08:07:04.824Z,3.10
2023-08-31T08:09:32.189Z,3.25
2023-08-31T08:11:59.503Z,3.58
2023-08-31T08:14:26.894Z,3.45
2023-08-31T08:16:54.485Z,3.33
2023-08-31T08:19:25.811Z,3.55
2023-08-31T08:22:02.184Z,3.22
2023-08-31T08:24:29.766Z,3.17
2023-08-31T08:26:57.182Z,3.47
2023-08-31T08:29:24.497Z,3.42
2023-08-31T08:31:52.280Z,3.00
2023-08-31T08:34:19.602Z,3.15
2023-08-31T08:36:49.316Z,3.40
2023-08-31T08:39:16.943Z,2.67
2023-08-31T08:41:45.700Z,2.55
2023-08-31T08:44:16.214Z,2.50
2023-08-31T08:46:44.773Z,2.50
2023-08-31T08:49:12.420Z,2.50
2023-08-31T08:51:39.961Z,2.88
2023-08-31T08:54:07.583Z,2.65
2023-08-31T08:56:35.981Z,2.65
2023-08-31T08:59:03.438Z,2.40
2023-08-31T09:01:31.102Z,2.60
2023-08-31T09:03:58.773Z,2.38
2023-08-31T09:06:26.103Z,2.35
2023-08-31T09:08:59.762Z,2.35
2023-08-31T09:11:27.702Z,2.65
2023-08-31T09:13:56.044Z,2.22
2023-08-31T09:16:33.170Z,2.83
2023-08-31T09:19:00.953Z,2.50
2023-08-31T09:21:38.817Z,2.58
2023-08-31T09:24:19.495Z,2.90
2023-08-31T09:26:51.711Z,2.20
2023-08-31T09:29:21.152Z,2.50
2023-08-31T09:31:49.335Z,2.45
2023-08-31T09:34:18.127Z,1.80
2023-08-31T09:36:46.183Z,2.10
2023-08-31T09:39:15.628Z,2.00
2023-08-31T09:41:59.252Z,1.58
2023-08-31T09:44:26.682Z,1.70
2023-08-31T09:46:54.739Z,2.30
2023-08-31T09:49:23.054Z,1.85
2023-08-31T09:51:51.785Z,2.10
2023-08-31T09:54:21.041Z,1.67
2023-08-31T09:56:49.731Z,1.90
2023-08-31T09:59:17.980Z,1.92
2023-08-31T10:01:47.981Z,1.60
2023-08-31T10:04:16.677Z,1.70
2023-08-31T10:06:44.788Z,1.83
2023-08-31T10:09:12.895Z,1.75
2023-08-31T10:11:41.453Z,1.70
2023-08-31T10:14:10.277Z,1.67
2023-08-31T10:16:42.308Z,1.65
2023-08-31T10:19:10.416Z,1.63
2023-08-31T10:21:38.624Z,1.52
2023-08-31T10:24:06.472Z,1.75
2023-08-31T10:26:34.116Z,1.58
2023-08-31T10:29:05.189Z,1.63
2023-08-31T10:31:35.815Z,1.77
2023-08-31T10:34:05.371Z,1.98
2023-08-31T10:36:51.285Z,1.75
2023-08-31T10:39:23.019Z,1.58
2023-08-31T10:41:57.786Z,1.80
2023-08-31T10:44:27.878Z,1.50
2023-08-31T10:46:55.970Z,1.60
2023-08-31T10:49:24.838Z,1.50
2023-08-31T10:52:36.981Z,1.48
2023-08-31T10:55:10.069Z,1.48
2023-08-31T10:57:37.747Z,2.10
2023-08-31T11:00:06.402Z,1.67
2023-08-31T11:02:43.363Z,1.40
2023-08-31T11:05:15.791Z,1.30
2023-08-31T11:07:51.049Z,1.33
2023-08-31T11:10:19.525Z,1.48
2023-08-31T11:12:53.753Z,1.67
2023-08-31T11:15:23.371Z,1.70
2023-08-31T11:17:55.287Z,1.45
2023-08-31T11:20:29.891Z,1.58
2023-08-31T11:22:57.851Z,1.73
2023-08-31T11:25:26.504Z,1.80
2023-08-31T11:27:59.874Z,1.58
2023-08-31T11:30:29.062Z,1.52
2023-08-31T11:32:56.790Z,1.50
2023-08-31T11:35:25.828Z,1.58
2023-08-31T11:37:57.563Z,1.50
2023-08-31T11:40:25.023Z,1.65
2023-08-31T11:42:56.703Z,1.83
2023-08-31T11:45:25.702Z,2.05
2023-08-31T11:47:54.198Z,2.10
2023-08-31T11:50:23.057Z,2.15
2023-08-31T11:52:51.938Z,1.90
2023-08-31T11:55:19.432Z,1.70
2023-08-31T11:57:56.008Z,1.90
2023-08-31T12:00:24.727Z,1.98
2023-08-31T12:03:02.488Z,2.20
2023-08-31T12:05:30.278Z,2.20
2023-08-31T12:07:57.881Z,2.05
2023-08-31T12:10:27.280Z,1.90
2023-08-31T12:12:57.452Z,1.75
2023-08-31T12:15:31.643Z,1.92
2023-08-31T12:20:59.220Z,1.73
2023-08-31T12:23:28.177Z,2.10
2023-08-31T12:25:56.121Z,1.63
2023-08-31T12:28:25.292Z,2.00
2023-08-31T12:30:57.881Z,1.85
2023-08-31T12:33:26.196Z,1.70
2023-08-31T12:35:53.880Z,1.42
2023-08-31T12:38:21.423Z,1.60
2023-08-31T12:40:48.843Z,1.60
2023-08-31T12:43:18.205Z,1.33
2023-08-31T12:45:46.034Z,1.70
2023-08-31T12:48:16.100Z,1.40
2023-08-31T12:50:45.985Z,1.65
2023-08-31T12:53:13.572Z,1.40
2023-08-31T12:55:41.380Z,1.60
2023-08-31T12:58:08.746Z,1.38
2023-08-31T13:00:36.010Z,1.27
2023-08-31T13:03:04.613Z,1.80
2023-08-31T13:05:32.086Z,2.15
2023-08-31T13:07:59.389Z,1.65
2023-08-31T13:10:27.540Z,2.00
2023-08-31T13:12:55.871Z,2.20
2023-08-31T13:15:23.706Z,2.22
2023-08-31T13:17:51.089Z,2.08
2023-08-31T13:20:18.557Z,2.08
2023-08-31T13:22:46.175Z,2.08
2023-08-31T13:25:14.024Z,1.80
2023-08-31T13:27:41.388Z,2.22
2023-08-31T13:30:10.525Z,2.17
2023-08-31T13:32:38.062Z,2.22
2023-08-31T13:35:09.141Z,1.92
2023-08-31T13:37:36.624Z,1.67
2023-08-31T13:40:09.119Z,1.80
2023-08-31T13:42:39.494Z,1.58
2023-08-31T13:45:08.816Z,1.77
2023-08-31T13:47:36.418Z,1.90
2023-08-31T13:50:05.468Z,2.15
2023-08-31T13:52:32.883Z,2.25
2023-08-31T13:55:00.374Z,2.40
2023-08-31T13:57:27.716Z,2.00
2023-08-31T13:59:55.128Z,2.30
2023-08-31T14:02:22.706Z,2.20
2023-08-31T14:04:51.064Z,2.33
2023-08-31T14:07:18.998Z,2.22
2023-08-31T14:09:46.401Z,2.10
2023-08-31T14:12:13.652Z,2.40
2023-08-31T14:14:42.285Z,2.28
2023-08-31T14:17:10.272Z,2.10
2023-08-31T14:19:37.626Z,2.15
2023-08-31T14:22:05.296Z,2.45
2023-08-31T14:24:32.948Z,2.47
2023-08-31T14:27:00.352Z,2.40
2023-08-31T14:29:28.142Z,2.67
2023-08-31T14:31:56.138Z,2.25
2023-08-31T14:34:24.028Z,2.25
2023-08-31T14:36:51.473Z,2.35
2023-08-31T14:39:19.585Z,2.33
2023-08-31T14:41:47.217Z,2.58
2023-08-31T14:44:15.726Z,2.33
2023-08-31T14:46:43.036Z,2.13
2023-08-31T14:49:10.371Z,2.22
2023-08-31T14:51:37.906Z,2.50
2023-08-31T14:54:05.244Z,1.90
2023-08-31T14:56:32.702Z,2.38
2023-08-31T14:59:00.209Z,2.58
2023-08-31T15:01:27.771Z,2.15
2023-08-31T15:03:55.279Z,1.95
2023-08-31T15:06:22.551Z,2.08
2023-08-31T15:08:49.871Z,1.90
2023-08-31T15:11:17.285Z,1.60
2023-08-31T15:13:45.054Z,2.03
2023-08-31T15:16:12.528Z,2.30
2023-08-31T15:18:40.292Z,2.58
2023-08-31T15:21:07.607Z,3.38
2023-08-31T15:23:34.817Z,2.92
2023-08-31T15:26:04.033Z,2.92
2023-08-31T15:28:31.701Z,3.13
2023-08-31T15:30:59.053Z,3.00
2023-08-31T15:33:26.574Z,3.08
2023-08-31T15:36:11.866Z,2.85
2023-08-31T15:38:39.524Z,3.00
2023-08-31T15:41:08.418Z,2.83
2023-08-31T15:43:38.599Z,2.38
2023-08-31T15:46:06.294Z,2.00
2023-08-31T15:48:33.710Z,3.03
2023-08-31T15:51:02.040Z,2.70
2023-08-31T15:53:30.117Z,1.88
2023-08-31T15:55:58.244Z,2.00
2023-08-31T15:58:28.281Z,2.55
2023-08-31T16:01:06.025Z,2.03
2023-08-31T16:03:35.781Z,2.17
2023-08-31T16:06:03.304Z,1.67
2023-08-31T16:08:30.686Z,2.80
2023-08-31T16:10:58.902Z,2.70
2023-08-31T16:13:26.222Z,2.38
2023-08-31T16:15:53.522Z,2.15
2023-08-31T16:18:21.127Z,2.25
2023-08-31T16:20:48.588Z,1.92
2023-08-31T16:23:15.831Z,1.88
2023-08-31T16:25:43.071Z,2.20
2023-08-31T16:28:12.153Z,1.80
2023-08-31T16:30:39.875Z,2.42
2023-08-31T16:33:07.214Z,2.08
2023-08-31T16:35:34.946Z,2.00
2023-08-31T16:38:02.269Z,1.92
2023-08-31T16:40:29.452Z,1.55
2023-08-31T16:42:56.768Z,2.40
2023-08-31T16:45:24.083Z,2.25
2023-08-31T16:47:51.377Z,2.00
2023-08-31T16:50:35.679Z,2.25
2023-08-31T16:53:05.625Z,2.10
2023-08-31T16:55:33.825Z,2.25
2023-08-31T16:58:01.224Z,2.20
2023-08-31T17:00:28.623Z,1.98
2023-08-31T17:02:56.023Z,2.22
2023-08-31T17:05:23.497Z,2.10
2023-08-31T17:07:50.951Z,2.40
2023-08-31T17:10:18.721Z,2.78
2023-08-31T17:12:46.174Z,2.70
2023-08-31T17:15:13.705Z,2.60
2023-08-31T17:17:45.635Z,3.33
2023-08-31T17:20:17.853Z,2.63
2023-08-31T17:22:45.834Z,2.40
2023-08-31T17:25:13.915Z,2.72
2023-08-31T17:27:42.545Z,2.70
2023-08-31T17:30:10.364Z,2.40
2023-08-31T17:32:38.099Z,2.40
2023-08-31T17:35:07.891Z,2.45
2023-08-31T17:37:36.593Z,2.17
2023-08-31T17:40:08.831Z,2.40
2023-08-31T17:42:38.104Z,2.40
2023-08-31T17:45:06.110Z,2.00
2023-08-31T17:47:33.693Z,2.28
2023-08-31T17:50:01.834Z,2.28
2023-08-31T17:52:29.187Z,2.40
2023-08-31T17:54:56.729Z,2.20
2023-08-31T17:57:26.227Z,2.03
2023-08-31T17:59:53.808Z,2.42
2023-08-31T18:02:21.165Z,1.92
2023-08-31T18:04:48.752Z,5.65
2023-08-31T18:07:16.540Z,3.80
2023-08-31T18:09:44.001Z,4.82
2023-08-31T18:12:12.492Z,6.05
2023-08-31T18:14:41.012Z,6.70
2023-08-31T18:17:10.041Z,6.68
2023-08-31T18:19:37.577Z,3.40
2023-08-31T18:22:05.259Z,2.30
2023-08-31T18:24:32.638Z,6.50
2023-08-31T18:27:00.101Z,3.78
2023-08-31T18:29:27.487Z,3.38
2023-08-31T18:31:55.210Z,3.05
2023-08-31T18:34:22.527Z,3.35
2023-08-31T18:36:49.917Z,3.45
2023-08-31T18:39:17.338Z,4.50
2023-08-31T18:41:44.897Z,4.15
2023-08-31T18:44:12.285Z,3.58
2023-08-31T18:46:39.797Z,2.50
2023-08-31T18:49:07.604Z,2.63
2023-08-31T18:51:41.243Z,2.67
2023-08-31T18:54:08.723Z,3.40
2023-08-31T18:56:36.700Z,2.88
2023-08-31T18:59:04.616Z,2.65
2023-08-31T19:01:32.100Z,2.42
2023-08-31T19:03:59.613Z,2.55
2023-08-31T19:06:28.338Z,2.40
2023-08-31T19:08:55.780Z,2.60
2023-08-31T19:11:22.997Z,2.88
2023-08-31T19:13:50.845Z,3.15
2023-08-31T19:16:19.337Z,2.75
2023-08-31T19:18:46.799Z,2.65
2023-08-31T19:21:20.323Z,3.00
2023-08-31T19:23:48.623Z,2.88
2023-08-31T19:26:16.152Z,3.13
2023-08-31T19:28:43.693Z,2.58
2023-08-31T19:31:11.452Z,2.50
2023-08-31T19:33:39.022Z,2.33
2023-08-31T19:36:06.530Z,2.78
2023-08-31T19:38:34.040Z,2.75
2023-08-31T19:41:01.489Z,2.67
2023-08-31T19:43:28.916Z,2.80
2023-08-31T19:45:56.732Z,3.00
2023-08-31T19:48:24.215Z,2.63
2023-08-31T19:50:53.349Z,2.80
2023-08-31T19:53:21.022Z,2.88
2023-08-31T19:55:50.041Z,3.15
2023-08-31T19:58:17.664Z,3.10
2023-08-31T20:00:45.321Z,3.10
2023-08-31T20:03:12.785Z,3.65
2023-08-31T20:05:40.424Z,3.30
2023-08-31T20:08:08.638Z,3.30
2023-08-31T20:10:35.956Z,3.20
2023-08-31T20:13:03.210Z,3.40
2023-08-31T20:15:30.408Z,2.97
2023-08-31T20:17:58.014Z,3.72
2023-08-31T20:20:25.452Z,3.00
2023-08-31T20:22:52.971Z,3.22
2023-08-31T20:25:30.290Z,3.25
2023-08-31T20:27:57.700Z,3.08
2023-08-31T20:30:28.713Z,3.60
2023-08-31T20:32:56.331Z,2.88
2023-08-31T20:35:24.570Z,2.78
2023-08-31T20:37:52.078Z,3.40
2023-08-31T20:40:19.600Z,3.25
2023-08-31T20:42:48.268Z,3.25
2023-08-31T20:45:15.929Z,3.33
2023-08-31T20:47:46.285Z,3.20
2023-08-31T20:50:14.300Z,3.22
2023-08-31T20:52:41.659Z,3.15
2023-08-31T20:55:10.244Z,3.58
2023-08-31T20:57:38.168Z,3.40
2023-08-31T21:00:07.077Z,3.72
2023-08-31T21:02:34.700Z,4.10
2023-08-31T21:05:05.070Z,4.35
2023-08-31T21:07:32.662Z,3.95
2023-08-31T21:10:00.008Z,4.03
2023-08-31T21:12:27.826Z,4.03
2023-08-31T21:14:55.759Z,3.75
2023-08-31T21:17:23.510Z,3.35
2023-08-31T21:19:50.987Z,3.40
2023-08-31T21:22:18.283Z,3.55
2023-08-31T21:24:45.720Z,3.30
2023-08-31T21:27:13.040Z,3.50
2023-08-31T21:29:40.533Z,3.50
2023-08-31T21:32:07.979Z,3.67
2023-08-31T21:34:35.312Z,3.22
2023-08-31T21:37:02.662Z,3.33
2023-08-31T21:39:30.067Z,3.10
2023-08-31T21:41:57.527Z,3.75
2023-08-31T21:44:25.075Z,3.70
2023-08-31T21:46:52.265Z,3.70
2023-08-31T21:49:19.665Z,4.07
2023-08-31T21:51:47.146Z,3.60
2023-08-31T21:54:14.408Z,3.88
2023-08-31T21:56:41.795Z,3.92
2023-08-31T21:59:09.223Z,3.97
2023-08-31T22:01:37.091Z,3.75
2023-08-31T22:04:05.587Z,3.72
2023-08-31T22:06:32.946Z,3.90
2023-08-31T22:09:00.317Z,3.55
2023-08-31T22:11:27.711Z,3.83
2023-08-31T22:13:55.056Z,3.92
2023-08-31T22:16:29.418Z,3.75
2023-08-31T22:18:57.669Z,4.20
2023-08-31T22:21:27.929Z,3.83
2023-08-31T22:23:55.412Z,3.70
2023-08-31T22:26:22.965Z,3.60
2023-08-31T22:28:52.782Z,4.13
2023-08-31T22:31:20.390Z,4.78
2023-08-31T22:33:47.735Z,3.72
2023-08-31T22:36:15.166Z,3.92
2023-08-31T22:38:42.498Z,4.00
2023-08-31T22:41:09.996Z,3.95
2023-08-31T22:43:42.518Z,3.70
2023-08-31T22:46:10.255Z,3.95
2023-08-31T22:48:37.674Z,3.85
2023-08-31T22:51:06.709Z,3.58
2023-08-31T22:53:34.598Z,3.80
2023-08-31T22:56:04.016Z,3.67
2023-08-31T22:58:31.312Z,3.80
2023-08-31T23:00:58.814Z,3.65
2023-08-31T23:03:26.647Z,3.97
2023-08-31T23:05:54.357Z,4.10
2023-08-31T23:08:21.702Z,3.90
2023-08-31T23:10:49.518Z,3.90
2023-08-31T23:13:17.023Z,3.47
2023-08-31T23:15:45.016Z,3.70
2023-08-31T23:18:13.222Z,3.65
2023-08-31T23:20:40.865Z,4.07
2023-08-31T23:23:08.150Z,3.92
2023-08-31T23:25:35.436Z,3.80
2023-08-31T23:28:02.790Z,3.42
2023-08-31T23:30:30.320Z,3.70
2023-08-31T23:32:57.988Z,3.90
2023-08-31T23:35:25.491Z,3.78
2023-08-31T23:37:52.957Z,3.85
2023-08-31T23:40:20.288Z,3.38
2023-08-31T23:42:47.945Z,3.88
2023-08-31T23:45:16.544Z,4.20
2023-08-31T23:47:44.087Z,3.90
2023-08-31T23:50:11.589Z,4.35
2023-08-31T23:52:40.398Z,3.67
2023-08-31T23:55:08.668Z,3.67
2023-08-31T23:57:35.906Z,3.70
